Detall de PIREP

Printer-friendly versionPDF version

[2013/11/30 20:11:00]
Flight IATA:CT1001
Pilot Number:026
Company ICAO:CAT
Aircraft Type:DC85/A
PAX:132
Aircraft Registration:PAX
Departing Airport: LEMH
Destination Airport: LERS
Alternate Airport:LEBL
Online: VATSIM
Route:LUNIK A25 BCN
Flight Level:F160
No Slew and time accel
No pause
Crash detect
Detect pilot in Cockpit between each 30 and 45 minutes
20:11 Zero fuel Weight: 179079 Lbs, Fuel Weight: 18000 Lbs
20:11 VATSIM:LEMH 302000Z VRB01KT 9999 FEW015 BKN049 05/04 Q1012 RERA
20:11 VATSIM:LERS 302000Z 02007KT 9999 FEW020 06/01 Q1014
20:11 VOICE CATALONIAN / IFR CLASSIC
20:12 Parking Brakes off
20:21 Take-off
20:21 Take off Weight: 196187 Lbs
20:21 Wind: 332º @ 003 Knots Heading: 008º
20:21 POS N39º 52´ 02´´ E004º 13´ 10´´
20:21 Flaps:2 at 168 Knots
20:21 Gear Up: 172 Knots
20:22 Flaps:1 at 121 Knots
20:23 Flaps:0 at 178 Knots
20:29 TOC
20:29 Fuel Weight: 14399 Lb
20:36 Wind:028º@024 Knots Heading: 315º Ground Speed: 391 Knots Altitude 15984 ft
20:42 TOD
20:42 Fuel Weight: 11651 Lb
20:51 Wind:035º@014 Knots Heading: 199º Ground Speed: 257 Knots Altitude 4678 ft
20:53 Flaps:1 at 179 Knots
20:53 Gear Down: 198 Knots
20:53 Flaps:2 at 185 Knots
20:54 Flaps:3 at 166 Knots
20:54 Flaps:4 at 156 Knots
20:55 Flaps:5 at 145 Knots
20:55 TouchDown:Rate -262 ft/min Speed: 129 Knots
20:55 VATSIM:LERS 302030Z 03007KT 9999 FEW020 07/M00 Q1015
20:56 Land
20:56 Wind:033º@007 Knots
20:56 Heading: 248º
20:56 Flight Duration: 00:35
20:56 Landing Weight: 189439 Lbs
20:56 POS N41º 08´ 44´´ E001º 09´ 40´´
20:57 Parking brakes on
20:57 Block to Block Duration: 00:45
20:57 Final Fuel: 10286 Lbls
20:57 Spent Fuel: 7713 Lbls
20:57 Flight Length: 184 NM
20:57 TOD Land Length: 63 NM

Exportar CSV

Powered by Drupal - Modified by Danger4k